Time;durP1;ratioP1;P1;durP2;ratioP2;P2;SDS_P1;SDS_P2;PMS_P1;PMS_P2;Temp;Humidity;BMP_temperature;BMP_pressure;BME280_temperature;BME280_humidity;BME280_pressure;Samples;Min_cycle;Max_cycle;Signal;HPM_P1;HPM_P2
2021/12/29 00:01:14;;;;;;;;;63.50;52.50;;;;;;;;5051153;27;10322;-75
2021/12/29 00:03:39;;;;;;;;;64.00;52.00;;;;;;;;5050488;28;8834;-75
2021/12/29 00:06:04;;;;;;;;;80.67;67.33;;;;;;;;5051169;28;8906;-75
2021/12/29 00:08:30;;;;;;;;;73.25;59.00;;;;;;;;5049353;27;8870;-75
2021/12/29 00:10:56;;;;;;;;;69.33;57.00;;;;;;;;5051154;28;8807;-75
2021/12/29 00:13:22;;;;;;;;;68.50;56.25;;;;;;;;5054840;28;8832;-74
2021/12/29 00:15:48;;;;;;;;;82.00;72.00;;;;;;;;5060028;27;9753;-74
2021/12/29 00:18:13;;;;;;;;;70.75;57.75;;;;;;;;5049822;28;8808;-75
2021/12/29 00:20:39;;;;;;;;;78.25;64.00;;;;;;;;5050528;27;8843;-75
2021/12/29 00:23:05;;;;;;;;;73.50;59.00;;;;;;;;5050639;27;8816;-75
2021/12/29 00:25:31;;;;;;;;;72.75;60.00;;;;;;;;5050914;28;8796;-75
2021/12/29 00:27:58;;;;;;;;;77.60;65.00;;;;;;;;5050644;28;8784;-75
2021/12/29 00:30:24;;;;;;;;;79.00;68.00;;;;;;;;5050903;28;8792;-75
2021/12/29 00:32:50;;;;;;;;;77.25;64.50;;;;;;;;5050351;28;8844;-75
2021/12/29 00:35:15;;;;;;;;;78.00;64.67;;;;;;;;5050562;28;8815;-74
2021/12/29 00:37:41;;;;;;;;;78.25;64.25;;;;;;;;5048913;27;8882;-74
2021/12/29 00:40:07;;;;;;;;;80.00;68.67;;;;;;;;5050982;28;8768;-75
2021/12/29 00:42:33;;;;;;;;;92.40;88.20;;;;;;;;5050267;27;11579;-75
2021/12/29 00:44:58;;;;;;;;;88.75;83.00;;;;;;;;5076974;27;8820;-75
2021/12/29 00:47:24;;;;;;;;;83.75;74.75;;;;;;;;5048930;28;8820;-75
2021/12/29 00:49:49;;;;;;;;;84.80;77.00;;;;;;;;5047605;27;8820;-74
2021/12/29 00:52:14;;;;;;;;;78.25;66.50;;;;;;;;5074132;27;9571;-75
2021/12/29 00:54:41;;;;;;;;;87.40;81.80;;;;;;;;5050009;28;9515;-75
2021/12/29 00:57:06;;;;;;;;;89.40;86.40;;;;;;;;5050663;28;8815;-75
2021/12/29 00:59:32;;;;;;;;;82.50;72.75;;;;;;;;5050416;28;9636;-74
2021/12/29 01:01:57;;;;;;;;;75.50;61.75;;;;;;;;5050053;27;11728;-74
2021/12/29 01:04:23;;;;;;;;;88.20;79.40;;;;;;;;5049995;28;8796;-75
2021/12/29 01:06:48;;;;;;;;;84.25;74.75;;;;;;;;5049910;27;8796;-74
2021/12/29 01:09:14;;;;;;;;;92.80;86.20;;;;;;;;5050322;28;8800;-75
2021/12/29 01:11:39;;;;;;;;;83.00;71.75;;;;;;;;5050507;27;8820;-74
2021/12/29 01:14:07;;;;;;;;;74.67;60.33;;;;;;;;5049991;27;8793;-74
2021/12/29 01:19:02;;;;;;;;;83.33;73.67;;;;;;;;5049424;28;8788;-74
2021/12/29 01:21:28;;;;;;;;;83.40;73.60;;;;;;;;5049662;27;10002;-74
2021/12/29 01:23:53;;;;;;;;;80.25;69.50;;;;;;;;5049645;28;8868;-74
2021/12/29 01:26:19;;;;;;;;;85.00;76.25;;;;;;;;5049918;28;10816;-74
2021/12/29 01:28:44;;;;;;;;;77.67;65.33;;;;;;;;5049501;28;8784;-74
2021/12/29 01:31:10;;;;;;;;;87.00;79.25;;;;;;;;5049851;27;8800;-74
2021/12/29 01:33:35;;;;;;;;;79.25;65.75;;;;;;;;5048218;28;8824;-74
2021/12/29 01:36:00;;;;;;;;;91.50;87.25;;;;;;;;5049543;27;8815;-74
2021/12/29 01:38:26;;;;;;;;;85.50;76.75;;;;;;;;5049888;28;8800;-74
2021/12/29 01:40:51;;;;;;;;;85.50;77.50;;;;;;;;5049524;27;8840;-74
2021/12/29 01:43:17;;;;;;;;;87.75;82.00;;;;;;;;5064978;27;8814;-74
2021/12/29 01:45:43;;;;;;;;;77.80;62.00;;;;;;;;5099740;27;11197;-74
2021/12/29 01:48:08;;;;;;;;;81.00;69.50;;;;;;;;5048438;27;8792;-74
2021/12/29 01:50:35;;;;;;;;;75.40;61.40;;;;;;;;5040860;27;8846;-74
2021/12/29 01:53:07;;;;;;;;;84.50;75.25;;;;;;;;5079419;27;8846;-74
2021/12/29 01:55:32;;;;;;;;;78.80;67.00;;;;;;;;5052805;28;8808;-74
2021/12/29 01:57:58;;;;;;;;;82.67;73.67;;;;;;;;5052406;28;8827;-74
2021/12/29 02:00:25;;;;;;;;;80.00;67.00;;;;;;;;5052668;27;8788;-74
2021/12/29 02:02:50;;;;;;;;;86.25;76.25;;;;;;;;5050795;28;8812;-74
2021/12/29 02:05:16;;;;;;;;;78.25;65.25;;;;;;;;5052293;27;8812;-74
2021/12/29 02:07:42;;;;;;;;;76.67;61.00;;;;;;;;5052187;27;8824;-74
2021/12/29 02:10:08;;;;;;;;;80.20;68.60;;;;;;;;5052393;28;8776;-74
2021/12/29 02:12:34;;;;;;;;;73.00;59.75;;;;;;;;5052568;28;8792;-75
2021/12/29 02:14:59;;;;;;;;;68.75;56.50;;;;;;;;5052263;27;8816;-75
2021/12/29 02:17:24;;;;;;;;;84.25;77.25;;;;;;;;5052565;27;8839;-74
2021/12/29 02:19:51;;;;;;;;;78.75;64.00;;;;;;;;5052011;27;9563;-74
2021/12/29 02:22:40;;;;;;;;;88.20;79.40;;;;;;;;5052220;28;8827;-75
2021/12/29 02:25:20;;;;;;;;;73.20;60.60;;;;;;;;5052421;28;8844;-74
2021/12/29 02:27:54;;;;;;;;;84.25;76.25;;;;;;;;5040632;28;8870;-75
2021/12/29 02:30:24;;;;;;;;;76.00;62.75;;;;;;;;5052316;28;8800;-74
2021/12/29 02:32:54;;;;;;;;;64.00;52.50;;;;;;;;5050807;28;8808;-75
2021/12/29 02:35:20;;;;;;;;;74.75;60.25;;;;;;;;5051736;27;8800;-75
2021/12/29 02:37:45;;;;;;;;;80.25;69.00;;;;;;;;5052445;28;8954;-74
2021/12/29 02:40:11;;;;;;;;;74.25;60.50;;;;;;;;5052004;27;8820;-75
2021/12/29 02:42:40;;;;;;;;;82.50;72.50;;;;;;;;5052121;28;8824;-74
2021/12/29 02:45:07;;;;;;;;;76.50;61.75;;;;;;;;5053499;27;8796;-75
2021/12/29 02:47:33;;;;;;;;;83.00;70.75;;;;;;;;5052054;28;9693;-74
2021/12/29 02:49:58;;;;;;;;;85.00;75.75;;;;;;;;5038061;27;8865;-74
2021/12/29 02:52:24;;;;;;;;;71.50;57.50;;;;;;;;5080665;27;8805;-74
2021/12/29 02:54:50;;;;;;;;;79.60;66.40;;;;;;;;5051543;27;8793;-75
2021/12/29 02:57:16;;;;;;;;;87.25;82.25;;;;;;;;5051878;27;8861;-75
2021/12/29 02:59:41;;;;;;;;;82.50;73.00;;;;;;;;5051207;27;8943;-75
2021/12/29 03:02:06;;;;;;;;;81.75;72.25;;;;;;;;5050893;28;11592;-74
2021/12/29 03:04:32;;;;;;;;;86.75;80.00;;;;;;;;5051332;27;8836;-75
2021/12/29 03:06:57;;;;;;;;;91.00;88.75;;;;;;;;5051199;28;11483;-75
2021/12/29 03:09:22;;;;;;;;;89.20;85.20;;;;;;;;5051364;27;8808;-75
2021/12/29 03:11:47;;;;;;;;;89.50;86.75;;;;;;;;5051628;27;8836;-74
2021/12/29 03:14:14;;;;;;;;;85.00;77.67;;;;;;;;5051336;27;8914;-74
2021/12/29 03:16:40;;;;;;;;;85.20;76.20;;;;;;;;5051580;27;9342;-75
2021/12/29 03:19:05;;;;;;;;;90.67;87.00;;;;;;;;5051205;27;8843;-75
2021/12/29 03:21:32;;;;;;;;;98.67;95.50;;;;;;;;5051222;27;8923;-74
2021/12/29 03:23:57;;;;;;;;;88.50;83.75;;;;;;;;5051291;27;8915;-75
2021/12/29 03:26:22;;;;;;;;;89.00;84.50;;;;;;;;5051502;28;8992;-75
2021/12/29 03:28:49;;;;;;;;;83.60;74.40;;;;;;;;5051112;27;11365;-75
2021/12/29 03:31:16;;;;;;;;;94.17;91.83;;;;;;;;5051295;27;8833;-75
2021/12/29 03:33:42;;;;;;;;;86.67;79.67;;;;;;;;5050677;27;8811;-75
2021/12/29 03:36:09;;;;;;;;;91.60;89.20;;;;;;;;5051502;27;8776;-75
2021/12/29 03:38:36;;;;;;;;;90.00;85.80;;;;;;;;5051127;27;11563;-74
2021/12/29 03:41:02;;;;;;;;;85.80;79.80;;;;;;;;5051162;28;10030;-74
2021/12/29 03:43:29;;;;;;;;;93.80;92.20;;;;;;;;5074400;27;8814;-74
2021/12/29 03:45:55;;;;;;;;;95.33;92.33;;;;;;;;5095230;27;8807;-74
2021/12/29 03:48:22;;;;;;;;;100.00;97.80;;;;;;;;5047782;28;10272;-74
2021/12/29 03:50:48;;;;;;;;;94.40;92.00;;;;;;;;5051174;27;8800;-74
2021/12/29 03:53:14;;;;;;;;;94.20;93.00;;;;;;;;5068687;27;8916;-75
2021/12/29 03:55:43;;;;;;;;;93.80;93.00;;;;;;;;5051039;28;8795;-74
2021/12/29 03:58:08;;;;;;;;;95.20;93.60;;;;;;;;5051225;27;8780;-74
2021/12/29 04:00:33;;;;;;;;;85.40;78.60;;;;;;;;5050986;28;8900;-74
2021/12/29 04:02:59;;;;;;;;;92.50;91.75;;;;;;;;5050605;28;8828;-74
2021/12/29 04:05:24;;;;;;;;;89.75;85.25;;;;;;;;5050639;28;8812;-74
2021/12/29 04:07:52;;;;;;;;;90.75;87.00;;;;;;;;5050340;27;8804;-74
2021/12/29 04:10:18;;;;;;;;;95.00;94.50;;;;;;;;5050935;28;9732;-74
2021/12/29 04:12:43;;;;;;;;;96.00;94.25;;;;;;;;5050244;28;8816;-75
2021/12/29 04:15:10;;;;;;;;;94.50;93.50;;;;;;;;5051078;27;8931;-74
2021/12/29 04:17:39;;;;;;;;;91.80;89.60;;;;;;;;5050536;27;8792;-74
2021/12/29 04:22:53;;;;;;;;;112.00;111.80;;;;;;;;5050488;28;8765;-75
2021/12/29 04:25:23;;;;;;;;;112.00;110.40;;;;;;;;5050677;27;8859;-74
2021/12/29 04:27:49;;;;;;;;;100.50;98.00;;;;;;;;5050633;28;8917;-74
2021/12/29 04:30:14;;;;;;;;;112.25;110.75;;;;;;;;5050699;27;8812;-74
2021/12/29 04:32:40;;;;;;;;;123.75;123.00;;;;;;;;5050801;28;9961;-74
2021/12/29 04:35:05;;;;;;;;;129.25;129.25;;;;;;;;5050153;27;11565;-74
2021/12/29 04:37:30;;;;;;;;;121.50;117.25;;;;;;;;5050900;28;8800;-74
2021/12/29 04:39:56;;;;;;;;;130.50;128.75;;;;;;;;5050248;27;9535;-74
2021/12/29 04:42:21;;;;;;;;;135.20;135.00;;;;;;;;5050985;27;8943;-75
2021/12/29 04:44:46;;;;;;;;;129.50;127.25;;;;;;;;5118293;27;8810;-74
2021/12/29 04:47:12;;;;;;;;;134.50;133.75;;;;;;;;5049395;28;8935;-74
2021/12/29 04:49:42;;;;;;;;;140.00;138.25;;;;;;;;5036640;27;9010;-75
2021/12/29 04:52:11;;;;;;;;;142.60;142.40;;;;;;;;5078687;27;8815;-75
2021/12/29 04:54:37;;;;;;;;;149.17;149.00;;;;;;;;5049015;27;8858;-74
2021/12/29 04:57:03;;;;;;;;;147.50;146.75;;;;;;;;5050500;28;8799;-75
2021/12/29 04:59:28;;;;;;;;;138.00;138.00;;;;;;;;5050405;27;8912;-75
2021/12/29 05:01:54;;;;;;;;;143.60;143.00;;;;;;;;5050369;28;8832;-74
2021/12/29 05:04:44;;;;;;;;;143.00;143.00;;;;;;;;5050252;27;9008;-75
2021/12/29 05:09:53;;;;;;;;;156.83;156.83;;;;;;;;5037714;28;8800;-74
2021/12/29 05:12:19;;;;;;;;;137.75;137.75;;;;;;;;5050317;27;8842;-74
2021/12/29 05:14:44;;;;;;;;;147.40;146.60;;;;;;;;5050308;28;8832;-74
2021/12/29 05:17:09;;;;;;;;;150.25;147.00;;;;;;;;5081931;27;8821;-74
2021/12/29 05:19:35;;;;;;;;;141.25;141.25;;;;;;;;5050170;28;9575;-74
2021/12/29 05:22:00;;;;;;;;;146.80;146.60;;;;;;;;5048223;27;8843;-74
2021/12/29 05:24:26;;;;;;;;;146.80;146.80;;;;;;;;5049285;27;8838;-74
2021/12/29 05:26:51;;;;;;;;;147.75;146.25;;;;;;;;5049794;28;8849;-74
2021/12/29 05:29:16;;;;;;;;;164.25;163.25;;;;;;;;5050265;27;8880;-74
2021/12/29 05:31:42;;;;;;;;;158.40;158.40;;;;;;;;5049649;28;8819;-74
2021/12/29 05:34:07;;;;;;;;;149.75;149.75;;;;;;;;5050014;27;8851;-74
2021/12/29 05:36:32;;;;;;;;;152.00;151.80;;;;;;;;5049716;27;9529;-74
2021/12/29 05:38:58;;;;;;;;;153.40;153.40;;;;;;;;5049755;28;8843;-74
2021/12/29 05:41:23;;;;;;;;;144.67;144.67;;;;;;;;5049637;27;8796;-74
2021/12/29 05:43:49;;;;;;;;;160.00;158.60;;;;;;;;5087057;27;8805;-74
2021/12/29 05:46:14;;;;;;;;;164.40;164.40;;;;;;;;5076122;27;8820;-74
2021/12/29 05:48:40;;;;;;;;;155.40;155.40;;;;;;;;5043988;27;8890;-74
2021/12/29 05:51:06;;;;;;;;;169.20;164.60;;;;;;;;5064898;27;8778;-74
2021/12/29 05:53:31;;;;;;;;;149.00;146.60;;;;;;;;5053588;27;8928;-74
2021/12/29 05:55:56;;;;;;;;;157.80;157.00;;;;;;;;5049188;27;8839;-74
2021/12/29 05:58:22;;;;;;;;;165.80;165.80;;;;;;;;5049458;28;8836;-74
2021/12/29 06:00:47;;;;;;;;;157.00;157.00;;;;;;;;5047972;27;9482;-74
2021/12/29 06:03:13;;;;;;;;;172.80;172.80;;;;;;;;5049001;28;8938;-74
2021/12/29 06:05:38;;;;;;;;;168.40;168.00;;;;;;;;5049366;27;9671;-74
2021/12/29 06:08:04;;;;;;;;;162.40;161.00;;;;;;;;5048926;27;8832;-74
2021/12/29 06:10:30;;;;;;;;;171.80;170.20;;;;;;;;5049304;27;8788;-74
2021/12/29 06:12:55;;;;;;;;;179.20;179.20;;;;;;;;5049067;28;8827;-74
2021/12/29 06:15:21;;;;;;;;;180.60;180.60;;;;;;;;5049050;27;8828;-74
2021/12/29 06:17:46;;;;;;;;;173.40;171.40;;;;;;;;5048630;27;10071;-74
2021/12/29 06:20:12;;;;;;;;;174.80;174.80;;;;;;;;5048884;27;8812;-74
2021/12/29 06:22:37;;;;;;;;;169.00;167.67;;;;;;;;5048931;28;9642;-74
2021/12/29 06:25:04;;;;;;;;;162.20;162.20;;;;;;;;5048791;28;8843;-74
2021/12/29 06:27:31;;;;;;;;;162.17;162.00;;;;;;;;5048811;27;8741;-74
2021/12/29 06:29:56;;;;;;;;;170.50;170.50;;;;;;;;5048865;28;8789;-74
2021/12/29 06:32:22;;;;;;;;;166.17;165.33;;;;;;;;5047097;27;9296;-74
2021/12/29 06:34:47;;;;;;;;;165.60;165.60;;;;;;;;5049175;28;8900;-74
2021/12/29 06:37:13;;;;;;;;;168.80;168.80;;;;;;;;5051684;27;8887;-75
2021/12/29 06:39:39;;;;;;;;;164.75;164.75;;;;;;;;5052269;28;8859;-75
2021/12/29 06:42:05;;;;;;;;;170.20;168.60;;;;;;;;5050350;27;8818;-75
2021/12/29 06:44:30;;;;;;;;;160.80;160.60;;;;;;;;5056812;27;8800;-75
2021/12/29 06:46:56;;;;;;;;;153.40;153.20;;;;;;;;5051683;27;8896;-75
2021/12/29 06:49:21;;;;;;;;;165.40;165.40;;;;;;;;5040129;27;8996;-75
2021/12/29 06:51:47;;;;;;;;;165.75;165.50;;;;;;;;5086702;27;8831;-75
2021/12/29 06:54:13;;;;;;;;;163.50;163.50;;;;;;;;5051722;28;8935;-75
2021/12/29 06:56:38;;;;;;;;;163.00;162.25;;;;;;;;5050429;27;8951;-75
2021/12/29 06:59:03;;;;;;;;;160.25;160.25;;;;;;;;5050368;28;8820;-75
2021/12/29 07:01:28;;;;;;;;;162.40;162.40;;;;;;;;5051459;28;8820;-75
2021/12/29 07:03:54;;;;;;;;;157.75;157.75;;;;;;;;5051252;27;8824;-75
2021/12/29 07:06:19;;;;;;;;;155.40;155.40;;;;;;;;5051373;28;8811;-74
2021/12/29 07:08:45;;;;;;;;;168.50;167.50;;;;;;;;5051213;27;8861;-75
2021/12/29 07:11:10;;;;;;;;;172.40;172.20;;;;;;;;5051664;28;9554;-75
2021/12/29 07:13:35;;;;;;;;;158.20;156.60;;;;;;;;5051454;27;8811;-75
2021/12/29 07:16:01;;;;;;;;;160.00;160.00;;;;;;;;5051346;27;8834;-75
2021/12/29 07:18:26;;;;;;;;;167.40;167.00;;;;;;;;5051134;27;8955;-75
2021/12/29 07:20:51;;;;;;;;;160.50;160.50;;;;;;;;5051303;28;8796;-74
2021/12/29 07:23:17;;;;;;;;;170.00;170.00;;;;;;;;5051327;27;8819;-74
2021/12/29 07:25:42;;;;;;;;;164.00;163.25;;;;;;;;5049916;28;8847;-74
2021/12/29 07:28:07;;;;;;;;;169.60;169.60;;;;;;;;5051650;27;11595;-74
2021/12/29 07:30:33;;;;;;;;;158.75;157.75;;;;;;;;5051278;27;8862;-74
2021/12/29 07:32:58;;;;;;;;;164.80;164.00;;;;;;;;5049994;27;8808;-74
2021/12/29 07:35:23;;;;;;;;;173.00;172.25;;;;;;;;5045447;27;9566;-74
2021/12/29 07:37:49;;;;;;;;;167.40;167.00;;;;;;;;5045704;28;8850;-75
2021/12/29 07:40:15;;;;;;;;;167.20;167.20;;;;;;;;5051380;27;8800;-74
2021/12/29 07:42:41;;;;;;;;;169.40;169.40;;;;;;;;5053026;28;8854;-74
2021/12/29 07:45:08;;;;;;;;;162.00;161.50;;;;;;;;5053267;27;8800;-74
2021/12/29 07:47:34;;;;;;;;;170.40;170.40;;;;;;;;5049851;27;8807;-75
2021/12/29 07:50:00;;;;;;;;;167.80;167.80;;;;;;;;5050688;27;8834;-76
2021/12/29 07:52:25;;;;;;;;;173.00;172.20;;;;;;;;5113611;27;8823;-75
2021/12/29 07:54:51;;;;;;;;;176.80;176.80;;;;;;;;5052611;27;8804;-76
2021/12/29 07:57:16;;;;;;;;;176.75;176.75;;;;;;;;5051269;28;8820;-75
2021/12/29 07:59:42;;;;;;;;;175.40;175.40;;;;;;;;5053751;27;11533;-75
2021/12/29 08:02:11;;;;;;;;;168.50;168.50;;;;;;;;5055519;28;8828;-73
2021/12/29 08:04:39;;;;;;;;;173.33;173.33;;;;;;;;5051949;27;8920;-76
2021/12/29 08:07:04;;;;;;;;;179.60;179.20;;;;;;;;5050646;27;8878;-76
2021/12/29 08:09:30;;;;;;;;;172.60;172.60;;;;;;;;5051258;28;8808;-76
2021/12/29 08:11:55;;;;;;;;;168.00;168.00;;;;;;;;5050681;27;8812;-76
2021/12/29 08:14:20;;;;;;;;;167.60;167.60;;;;;;;;5053779;27;8819;-76
2021/12/29 08:16:46;;;;;;;;;155.60;155.60;;;;;;;;5051028;27;8910;-76
2021/12/29 08:19:11;;;;;;;;;140.67;140.67;;;;;;;;5051178;27;8823;-75
2021/12/29 08:21:36;;;;;;;;;129.80;129.80;;;;;;;;5051031;28;8795;-75
2021/12/29 08:24:02;;;;;;;;;160.20;160.20;;;;;;;;5079107;27;9511;-75
2021/12/29 08:26:28;;;;;;;;;105.20;102.00;;;;;;;;5109158;27;8891;-75
2021/12/29 08:28:57;;;;;;;;;97.00;92.20;;;;;;;;5087257;27;8808;-75
2021/12/29 08:31:22;;;;;;;;;136.50;136.50;;;;;;;;5051752;27;8803;-75
2021/12/29 08:33:47;;;;;;;;;95.60;90.40;;;;;;;;5049175;27;9229;-75
2021/12/29 08:36:13;;;;;;;;;106.00;102.80;;;;;;;;5064313;28;8928;-75
2021/12/29 08:38:38;;;;;;;;;91.00;86.00;;;;;;;;5050926;27;9015;-75
2021/12/29 08:41:03;;;;;;;;;121.00;120.00;;;;;;;;5049307;28;8853;-75
2021/12/29 08:43:31;;;;;;;;;109.20;107.40;;;;;;;;5066701;27;8902;-75
2021/12/29 08:45:56;;;;;;;;;72.80;65.40;;;;;;;;5050145;27;8792;-75
2021/12/29 08:48:21;;;;;;;;;37.25;33.50;;;;;;;;5050415;28;8879;-75
2021/12/29 08:50:47;;;;;;;;;88.60;83.00;;;;;;;;5060398;27;8903;-75
2021/12/29 08:53:13;;;;;;;;;57.25;50.25;;;;;;;;5053347;27;8825;-76
2021/12/29 08:55:44;;;;;;;;;23.00;21.75;;;;;;;;5049091;27;8842;-76
2021/12/29 08:58:09;;;;;;;;;20.00;19.25;;;;;;;;5037279;28;8815;-76
2021/12/29 09:00:35;;;;;;;;;20.75;20.00;;;;;;;;5050390;27;8788;-76
2021/12/29 09:03:00;;;;;;;;;10.33;10.33;;;;;;;;5050187;28;8959;-76
2021/12/29 09:05:25;;;;;;;;;25.50;23.75;;;;;;;;5048886;27;9289;-77
2021/12/29 09:07:51;;;;;;;;;18.50;18.00;;;;;;;;5050508;27;8904;-76
2021/12/29 09:10:18;;;;;;;;;4.50;4.50;;;;;;;;5050597;27;8808;-76
2021/12/29 09:12:43;;;;;;;;;23.75;22.75;;;;;;;;5050802;28;8873;-76
2021/12/29 09:15:09;;;;;;;;;3.25;3.25;;;;;;;;5049994;27;8805;-76
2021/12/29 09:17:34;;;;;;;;;0.25;0.25;;;;;;;;5109674;27;8813;-75
2021/12/29 09:20:01;;;;;;;;;1.00;1.00;;;;;;;;5050832;27;8854;-76
2021/12/29 09:22:26;;;;;;;;;1.00;1.00;;;;;;;;5050551;28;8823;-76
2021/12/29 09:24:52;;;;;;;;;0.00;0.00;;;;;;;;5050350;27;8828;-76
2021/12/29 09:27:17;;;;;;;;;0.25;0.25;;;;;;;;5050818;28;8987;-76
2021/12/29 09:29:43;;;;;;;;;0.00;0.00;;;;;;;;5050292;28;8869;-76
2021/12/29 09:32:08;;;;;;;;;0.00;0.00;;;;;;;;5050218;27;8895;-76
2021/12/29 09:34:34;;;;;;;;;0.00;0.00;;;;;;;;5050014;27;9099;-76
2021/12/29 09:37:00;;;;;;;;;0.00;0.00;;;;;;;;5050185;27;8812;-76
2021/12/29 09:39:25;;;;;;;;;0.00;0.00;;;;;;;;5050267;28;8879;-76
2021/12/29 09:41:51;;;;;;;;;3.25;3.25;;;;;;;;5049754;27;8862;-76
2021/12/29 09:44:16;;;;;;;;;0.00;0.00;;;;;;;;5069431;27;8859;-76
2021/12/29 09:46:42;;;;;;;;;0.00;0.00;;;;;;;;5049716;27;8938;-76
2021/12/29 09:49:07;;;;;;;;;0.00;0.00;;;;;;;;5049328;28;8808;-76
2021/12/29 09:51:32;;;;;;;;;0.00;0.00;;;;;;;;5091470;27;8829;-76
2021/12/29 09:53:58;;;;;;;;;0.00;0.00;;;;;;;;5036591;28;8835;-76
2021/12/29 09:56:26;;;;;;;;;0.00;0.00;;;;;;;;5050373;27;9634;-76
2021/12/29 09:58:52;;;;;;;;;0.00;0.00;;;;;;;;5049932;28;8803;-76
2021/12/29 10:01:18;;;;;;;;;0.00;0.00;;;;;;;;5050109;27;8780;-76
2021/12/29 10:03:44;;;;;;;;;0.00;0.00;;;;;;;;5048828;28;8816;-77
2021/12/29 10:06:10;;;;;;;;;0.00;0.00;;;;;;;;5049400;27;8835;-76
2021/12/29 10:08:39;;;;;;;;;0.00;0.00;;;;;;;;5060975;27;8901;-76
2021/12/29 10:11:28;;;;;;;;;0.00;0.00;;;;;;;;5058337;27;8942;-76
2021/12/29 10:13:53;;;;;;;;;0.00;0.00;;;;;;;;5055046;27;8804;-76
2021/12/29 10:16:21;;;;;;;;;0.00;0.00;;;;;;;;5052836;27;8842;-76
2021/12/29 10:18:53;;;;;;;;;0.00;0.00;;;;;;;;5052660;27;8800;-76
2021/12/29 10:21:22;;;;;;;;;0.00;0.00;;;;;;;;5052791;27;8769;-76
2021/12/29 10:23:49;;;;;;;;;0.00;0.00;;;;;;;;5052973;28;8812;-76
2021/12/29 10:26:16;;;;;;;;;0.00;0.00;;;;;;;;5052708;27;8797;-76
2021/12/29 10:28:47;;;;;;;;;0.00;0.00;;;;;;;;5052995;28;8796;-76
2021/12/29 10:31:20;;;;;;;;;0.00;0.00;;;;;;;;5052838;27;8788;-76
2021/12/29 10:33:50;;;;;;;;;0.00;0.00;;;;;;;;5051268;28;8800;-76
2021/12/29 10:36:18;;;;;;;;;0.00;0.00;;;;;;;;5052599;27;8748;-76
2021/12/29 10:38:44;;;;;;;;;0.00;0.00;;;;;;;;5052827;28;8800;-76
2021/12/29 10:41:10;;;;;;;;;0.00;0.00;;;;;;;;5052939;27;8824;-76
2021/12/29 10:43:37;;;;;;;;;0.00;0.00;;;;;;;;5079954;27;8935;-76
2021/12/29 10:46:03;;;;;;;;;0.00;0.00;;;;;;;;5052798;28;8811;-77
2021/12/29 10:48:30;;;;;;;;;0.00;0.00;;;;;;;;5048593;27;8838;-76
2021/12/29 10:51:01;;;;;;;;;0.00;0.00;;;;;;;;5059357;27;8790;-76
2021/12/29 10:53:27;;;;;;;;;0.00;0.00;;;;;;;;5060917;27;8764;-76
2021/12/29 10:55:52;;;;;;;;;0.00;0.00;;;;;;;;5051194;27;8804;-76
2021/12/29 10:58:20;;;;;;;;;0.00;0.00;;;;;;;;5052493;28;8812;-76
2021/12/29 11:00:57;;;;;;;;;0.00;0.00;;;;;;;;5052485;27;8748;-75
2021/12/29 11:03:23;;;;;;;;;0.00;0.00;;;;;;;;5052191;27;8800;-75
2021/12/29 11:05:53;;;;;;;;;0.00;0.00;;;;;;;;5052247;28;8784;-75
2021/12/29 11:08:18;;;;;;;;;0.00;0.00;;;;;;;;5052361;27;8800;-75
2021/12/29 11:10:45;;;;;;;;;0.00;0.00;;;;;;;;5052086;27;8796;-75
2021/12/29 11:13:12;;;;;;;;;0.00;0.00;;;;;;;;5052619;27;8788;-75
2021/12/29 11:15:41;;;;;;;;;0.00;0.00;;;;;;;;5052190;28;8795;-76
2021/12/29 11:18:07;;;;;;;;;0.00;0.00;;;;;;;;5087234;27;9637;-75
2021/12/29 11:20:33;;;;;;;;;0.00;0.00;;;;;;;;5051959;27;8753;-75
2021/12/29 11:23:12;;;;;;;;;0.00;0.00;;;;;;;;5050949;27;9508;-75
2021/12/29 11:25:38;;;;;;;;;0.00;0.00;;;;;;;;5052031;28;9655;-75
2021/12/29 11:28:04;;;;;;;;;0.00;0.00;;;;;;;;5051981;27;8792;-75
2021/12/29 11:30:29;;;;;;;;;0.00;0.00;;;;;;;;5052113;28;8883;-75
2021/12/29 11:33:03;;;;;;;;;0.00;0.00;;;;;;;;5051795;28;9599;-75
2021/12/29 11:35:28;;;;;;;;;0.00;0.00;;;;;;;;5052062;27;8856;-75
2021/12/29 11:37:55;;;;;;;;;0.00;0.00;;;;;;;;5050689;28;8808;-75
2021/12/29 11:40:24;;;;;;;;;0.00;0.00;;;;;;;;5051658;27;8804;-75
2021/12/29 11:42:49;;;;;;;;;0.00;0.00;;;;;;;;5051903;28;8918;-74
2021/12/29 11:45:15;;;;;;;;;0.00;0.00;;;;;;;;5121459;27;8820;-74
2021/12/29 11:47:41;;;;;;;;;0.00;0.00;;;;;;;;5051737;28;8780;-75
2021/12/29 11:50:08;;;;;;;;;0.00;0.00;;;;;;;;5037998;27;8818;-75
2021/12/29 11:52:42;;;;;;;;;0.00;0.00;;;;;;;;5081193;27;8785;-75
2021/12/29 11:55:19;;;;;;;;;0.00;0.00;;;;;;;;5050480;27;8840;-76
2021/12/29 11:57:45;;;;;;;;;0.00;0.00;;;;;;;;5051693;28;8776;-80
2021/12/29 12:00:19;;;;;;;;;0.00;0.00;;;;;;;;5052154;27;8780;-76
2021/12/29 12:02:47;;;;;;;;;0.00;0.00;;;;;;;;5051374;28;8828;-75
2021/12/29 12:05:14;;;;;;;;;0.00;0.00;;;;;;;;5051835;28;8792;-76
2021/12/29 12:07:39;;;;;;;;;0.00;0.00;;;;;;;;5051622;27;8740;-79
2021/12/29 12:10:09;;;;;;;;;0.00;0.00;;;;;;;;5050291;27;8942;-78
2021/12/29 12:12:36;;;;;;;;;0.00;0.00;;;;;;;;5051581;28;8806;-79
2021/12/29 12:15:02;;;;;;;;;0.00;0.00;;;;;;;;5051545;27;8838;-81
2021/12/29 12:17:28;;;;;;;;;0.00;0.00;;;;;;;;5086245;27;8869;-75
2021/12/29 12:20:14;;;;;;;;;0.00;0.00;;;;;;;;5048737;27;10142;-75
2021/12/29 12:22:57;;;;;;;;;0.00;0.00;;;;;;;;5098518;27;8830;-76
2021/12/29 12:25:28;;;;;;;;;0.00;0.00;;;;;;;;5052961;27;8746;-74
2021/12/29 12:28:00;;;;;;;;;0.00;0.00;;;;;;;;5049233;27;8827;-75
2021/12/29 12:30:27;;;;;;;;;0.00;0.00;;;;;;;;5046763;28;8912;-74
2021/12/29 12:32:54;;;;;;;;;0.00;0.00;;;;;;;;5050719;27;8911;-75
2021/12/29 12:35:36;;;;;;;;;0.00;0.00;;;;;;;;5051279;28;9646;-75
2021/12/29 12:38:20;;;;;;;;;0.00;0.00;;;;;;;;5051145;27;8764;-75
2021/12/29 12:40:46;;;;;;;;;0.00;0.00;;;;;;;;5040291;28;8877;-75
2021/12/29 12:43:14;;;;;;;;;0.00;0.00;;;;;;;;5062645;27;8828;-75
2021/12/29 12:45:41;;;;;;;;;0.00;0.00;;;;;;;;5104903;27;8776;-75
2021/12/29 12:48:11;;;;;;;;;0.00;0.00;;;;;;;;5049817;27;8780;-75
2021/12/29 12:50:38;;;;;;;;;0.00;0.00;;;;;;;;5049487;27;8745;-75
2021/12/29 12:53:03;;;;;;;;;0.00;0.00;;;;;;;;5076624;27;8807;-75
2021/12/29 12:55:30;;;;;;;;;0.00;0.00;;;;;;;;5049460;27;9504;-75
2021/12/29 12:58:05;;;;;;;;;0.00;0.00;;;;;;;;5051131;28;8780;-75
2021/12/29 13:00:31;;;;;;;;;0.00;0.00;;;;;;;;5050974;28;8780;-75
2021/12/29 13:02:57;;;;;;;;;0.00;0.00;;;;;;;;5049058;28;8909;-75
2021/12/29 13:05:22;;;;;;;;;0.00;0.00;;;;;;;;5050627;27;8819;-74
2021/12/29 13:07:58;;;;;;;;;0.00;0.00;;;;;;;;5050598;27;8820;-75
2021/12/29 13:10:25;;;;;;;;;0.00;0.00;;;;;;;;5050668;28;8764;-75
2021/12/29 13:12:57;;;;;;;;;0.00;0.00;;;;;;;;5049230;27;8819;-75
2021/12/29 13:15:23;;;;;;;;;0.00;0.00;;;;;;;;5050266;28;8772;-75
2021/12/29 13:17:49;;;;;;;;;0.00;0.00;;;;;;;;5050292;27;8844;-75
2021/12/29 13:20:15;;;;;;;;;0.00;0.00;;;;;;;;5050646;28;8804;-75
2021/12/29 13:22:41;;;;;;;;;0.00;0.00;;;;;;;;5050232;27;8827;-75
2021/12/29 13:25:11;;;;;;;;;0.00;0.00;;;;;;;;5050610;28;8811;-75
2021/12/29 13:27:37;;;;;;;;;0.00;0.00;;;;;;;;5035364;28;9139;-75
2021/12/29 13:30:04;;;;;;;;;0.00;0.00;;;;;;;;5049159;28;8862;-75
2021/12/29 13:32:29;;;;;;;;;0.00;0.00;;;;;;;;5036838;28;8804;-75
2021/12/29 13:34:59;;;;;;;;;0.00;0.00;;;;;;;;5049888;27;8899;-75
2021/12/29 13:37:24;;;;;;;;;0.00;0.00;;;;;;;;5048595;27;8792;-75
2021/12/29 13:39:53;;;;;;;;;0.00;0.00;;;;;;;;5050335;28;8804;-75
2021/12/29 13:42:18;;;;;;;;;0.00;0.00;;;;;;;;5050284;28;8819;-74
2021/12/29 13:44:44;;;;;;;;;0.00;0.00;;;;;;;;5053068;27;8792;-75
2021/12/29 13:47:09;;;;;;;;;0.00;0.00;;;;;;;;5053437;28;8796;-75
2021/12/29 13:49:35;;;;;;;;;0.00;0.00;;;;;;;;5037966;27;8841;-75
2021/12/29 13:52:00;;;;;;;;;0.00;0.00;;;;;;;;5081482;27;8832;-74
2021/12/29 13:54:27;;;;;;;;;0.00;0.00;;;;;;;;5052395;27;8941;-75
2021/12/29 13:56:53;;;;;;;;;0.00;0.00;;;;;;;;5052943;27;8834;-74
2021/12/29 13:59:20;;;;;;;;;0.00;0.00;;;;;;;;5052965;28;8921;-73
2021/12/29 14:01:47;;;;;;;;;0.00;0.00;;;;;;;;5051459;27;8914;-74
2021/12/29 14:04:17;;;;;;;;;0.00;0.00;;;;;;;;5052691;28;8811;-74
2021/12/29 14:06:42;;;;;;;;;0.00;0.00;;;;;;;;5052424;27;8984;-75
2021/12/29 14:09:08;;;;;;;;;0.00;0.00;;;;;;;;5052956;28;8792;-75
2021/12/29 14:11:34;;;;;;;;;0.00;0.00;;;;;;;;5053006;27;8820;-75
2021/12/29 14:14:01;;;;;;;;;0.00;0.00;;;;;;;;5051218;28;8835;-75
2021/12/29 14:16:27;;;;;;;;;0.00;0.00;;;;;;;;5052849;27;9814;-75
2021/12/29 14:18:54;;;;;;;;;0.00;0.00;;;;;;;;5052459;28;8847;-75
2021/12/29 14:21:21;;;;;;;;;0.00;0.00;;;;;;;;5052779;27;8835;-74
2021/12/29 14:23:51;;;;;;;;;0.00;0.00;;;;;;;;5052525;28;8784;-75
2021/12/29 14:26:16;;;;;;;;;0.00;0.00;;;;;;;;5052676;27;8848;-75
2021/12/29 14:28:50;;;;;;;;;0.00;0.00;;;;;;;;5052647;28;8831;-75
2021/12/29 14:31:15;;;;;;;;;0.00;0.00;;;;;;;;5052757;28;8796;-75
2021/12/29 14:33:42;;;;;;;;;0.00;0.00;;;;;;;;5052192;27;8840;-75
2021/12/29 14:36:09;;;;;;;;;0.00;0.00;;;;;;;;5052532;27;8788;-75